createdAt,value
2022-09-28T00:00:46.881Z,9.64
2022-09-28T00:01:47.198Z,9.72
2022-09-28T00:02:47.512Z,9.66
2022-09-28T00:03:47.455Z,9.73
2022-09-28T00:04:47.588Z,9.74
2022-09-28T00:05:47.744Z,9.73
2022-09-28T00:06:47.913Z,9.73
2022-09-28T00:07:48.194Z,9.73
2022-09-28T00:08:48.257Z,9.64
2022-09-28T00:09:48.434Z,9.66
2022-09-28T00:10:48.588Z,9.77
2022-09-28T00:11:48.746Z,9.68
2022-09-28T00:12:48.948Z,9.69
2022-09-28T00:13:49.122Z,9.72
2022-09-28T00:14:49.252Z,9.64
2022-09-28T00:15:49.442Z,9.77
2022-09-28T00:16:49.708Z,9.72
2022-09-28T00:17:49.867Z,9.74
2022-09-28T00:18:50.206Z,9.77
2022-09-28T00:19:50.214Z,9.77
2022-09-28T00:20:50.403Z,9.74
2022-09-28T00:21:50.597Z,9.77
2022-09-28T00:22:50.734Z,9.77
2022-09-28T00:23:50.912Z,9.72
2022-09-28T00:24:51.034Z,9.68
2022-09-28T00:25:51.206Z,9.77
2022-09-28T00:26:51.404Z,9.77
2022-09-28T00:27:51.539Z,9.84
2022-09-28T00:28:51.731Z,9.83
2022-09-28T00:29:51.873Z,9.82
2022-09-28T00:30:52.047Z,9.87
2022-09-28T00:31:52.331Z,9.84
2022-09-28T00:32:52.409Z,9.86
2022-09-28T00:33:52.753Z,9.91
2022-09-28T00:34:52.863Z,9.92
2022-09-28T00:35:52.877Z,9.91
2022-09-28T00:36:53.043Z,9.89
2022-09-28T00:37:53.204Z,9.87
2022-09-28T00:38:53.373Z,9.84
2022-09-28T00:39:53.587Z,9.83
2022-09-28T00:40:53.793Z,9.87
2022-09-28T00:41:53.878Z,9.91
2022-09-28T00:42:54.051Z,9.94
2022-09-28T00:43:54.247Z,9.94
2022-09-28T00:44:54.444Z,9.95
2022-09-28T00:45:54.613Z,9.87
2022-09-28T00:46:54.715Z,9.87
2022-09-28T00:47:54.875Z,9.89
2022-09-28T00:48:55.049Z,9.89
2022-09-28T00:49:55.242Z,9.99
2022-09-28T00:50:55.373Z,9.92
2022-09-28T00:51:55.573Z,9.87
2022-09-28T00:52:55.714Z,9.95
2022-09-28T00:53:55.891Z,9.92
2022-09-28T00:54:56.043Z,9.98
2022-09-28T00:55:56.242Z,9.83
2022-09-28T00:56:56.405Z,9.94
2022-09-28T00:57:56.582Z,9.94
2022-09-28T00:58:56.742Z,9.89
2022-09-28T00:59:56.898Z,9.89
2022-09-28T01:00:57.156Z,9.95
2022-09-28T01:01:57.245Z,9.95
2022-09-28T01:02:57.575Z,9.86
2022-09-28T01:03:57.552Z,9.91
2022-09-28T01:04:57.735Z,9.87
2022-09-28T01:05:57.905Z,10.01
2022-09-28T01:06:58.067Z,9.89
2022-09-28T01:07:58.293Z,9.95
2022-09-28T01:08:58.390Z,9.95
2022-09-28T01:09:58.559Z,9.92
2022-09-28T01:10:58.710Z,9.86
2022-09-28T01:11:58.872Z,9.84
2022-09-28T01:12:59.068Z,9.84
2022-09-28T01:13:59.263Z,9.87
2022-09-28T01:14:59.423Z,9.84
2022-09-28T01:15:59.585Z,9.84
2022-09-28T01:16:59.724Z,9.80
2022-09-28T01:17:59.917Z,9.77
2022-09-28T01:19:00.076Z,9.73
2022-09-28T01:20:00.236Z,9.69
2022-09-28T01:21:00.374Z,9.73
2022-09-28T01:22:00.539Z,9.79
2022-09-28T01:23:00.692Z,9.76
2022-09-28T01:24:00.883Z,9.72
2022-09-28T01:25:01.012Z,9.74
2022-09-28T01:26:01.172Z,9.79
2022-09-28T01:27:01.331Z,9.74
2022-09-28T01:28:01.635Z,9.74
2022-09-28T01:29:01.719Z,9.64
2022-09-28T01:30:01.802Z,9.66
2022-09-28T01:31:01.955Z,9.65
2022-09-28T01:32:02.166Z,9.69
2022-09-28T01:33:02.275Z,9.66
2022-09-28T01:34:02.505Z,9.68
2022-09-28T01:35:02.624Z,9.68
2022-09-28T01:36:02.801Z,9.68
2022-09-28T01:37:02.962Z,9.64
2022-09-28T01:38:03.144Z,9.61
2022-09-28T01:39:03.445Z,9.65
2022-09-28T01:40:03.487Z,9.62
2022-09-28T01:41:03.652Z,9.59
2022-09-28T01:42:03.843Z,9.62
2022-09-28T01:43:03.965Z,9.65
2022-09-28T01:44:04.250Z,9.58
2022-09-28T01:45:04.299Z,9.62
2022-09-28T01:46:04.603Z,9.54
2022-09-28T01:47:04.638Z,9.54
2022-09-28T01:48:04.816Z,9.48
2022-09-28T01:49:04.997Z,9.48
2022-09-28T01:50:05.160Z,9.54
2022-09-28T01:51:05.328Z,9.54
2022-09-28T01:52:05.464Z,9.50
2022-09-28T01:53:05.622Z,9.47
2022-09-28T01:54:05.782Z,9.56
2022-09-28T01:55:05.967Z,9.47
2022-09-28T01:56:06.140Z,9.44
2022-09-28T01:57:06.260Z,9.46
2022-09-28T01:58:06.423Z,9.43
2022-09-28T01:59:06.600Z,9.41
2022-09-28T02:00:06.761Z,9.39
2022-09-28T02:01:07.009Z,9.48
2022-09-28T02:02:07.129Z,9.43
2022-09-28T02:03:07.205Z,9.39
2022-09-28T02:04:07.365Z,9.46
2022-09-28T02:05:07.734Z,9.43
2022-09-28T02:06:07.724Z,9.47
2022-09-28T02:07:07.893Z,9.36
2022-09-28T02:08:08.059Z,9.37
2022-09-28T02:09:08.224Z,9.44
2022-09-28T02:10:08.424Z,9.37
2022-09-28T02:11:08.570Z,9.36
2022-09-28T02:12:08.736Z,9.37
2022-09-28T02:13:08.904Z,9.37
2022-09-28T02:14:09.092Z,9.32
2022-09-28T02:15:09.257Z,9.31
2022-09-28T02:16:09.451Z,9.44
2022-09-28T02:17:09.537Z,9.39
2022-09-28T02:18:09.743Z,9.32
2022-09-28T02:19:09.977Z,9.28
2022-09-28T02:20:10.063Z,9.29
2022-09-28T02:21:10.262Z,9.28
2022-09-28T02:22:10.393Z,9.32
2022-09-28T02:23:10.572Z,9.29
2022-09-28T02:24:10.747Z,9.29
2022-09-28T02:25:10.918Z,9.26
2022-09-28T02:26:11.117Z,9.28
2022-09-28T02:27:11.242Z,9.28
2022-09-28T02:28:11.413Z,9.34
2022-09-28T02:29:11.570Z,9.26
2022-09-28T02:30:11.757Z,9.31
2022-09-28T02:31:11.933Z,9.25
2022-09-28T02:32:12.047Z,9.26
2022-09-28T02:33:12.257Z,9.31
2022-09-28T02:34:12.379Z,9.28
2022-09-28T02:35:12.549Z,9.31
2022-09-28T02:36:12.726Z,9.25
2022-09-28T02:37:12.927Z,9.29
2022-09-28T02:38:13.164Z,9.29
2022-09-28T02:39:13.451Z,9.29
2022-09-28T02:40:13.529Z,9.29
2022-09-28T02:41:13.720Z,9.25
2022-09-28T02:42:13.910Z,9.28
2022-09-28T02:43:14.228Z,9.25
2022-09-28T02:44:14.293Z,9.28
2022-09-28T02:45:14.506Z,9.26
2022-09-28T02:46:14.794Z,9.26
2022-09-28T02:47:14.853Z,9.16
2022-09-28T02:48:15.078Z,9.21
2022-09-28T02:49:21.692Z,9.18
2022-09-28T02:50:15.428Z,9.14
2022-09-28T02:51:15.624Z,9.25
2022-09-28T02:52:15.830Z,9.22
2022-09-28T02:53:16.051Z,9.19
2022-09-28T02:54:18.806Z,9.18
2022-09-28T02:55:16.394Z,9.13
2022-09-28T02:56:16.595Z,9.18
2022-09-28T02:57:16.796Z,9.14
2022-09-28T02:58:17.003Z,9.06
2022-09-28T02:59:17.462Z,9.16
2022-09-28T03:00:17.420Z,9.02
2022-09-28T03:01:17.642Z,9.08
2022-09-28T03:02:17.948Z,9.04
2022-09-28T03:03:17.993Z,9.06
2022-09-28T03:04:18.217Z,9.08
2022-09-28T03:05:18.678Z,8.99
2022-09-28T03:06:18.566Z,9.00
2022-09-28T03:07:18.758Z,8.99
2022-09-28T03:08:18.941Z,8.92
2022-09-28T03:09:19.128Z,8.92
2022-09-28T03:10:19.348Z,8.95
2022-09-28T03:11:19.508Z,8.92
2022-09-28T03:12:19.705Z,8.87
2022-09-28T03:13:19.929Z,8.87
2022-09-28T03:14:20.093Z,8.88
2022-09-28T03:15:20.297Z,8.91
2022-09-28T03:16:20.615Z,8.89
2022-09-28T03:17:20.710Z,8.87
2022-09-28T03:18:20.941Z,8.91
2022-09-28T03:19:21.103Z,8.89
2022-09-28T03:20:21.300Z,8.91
2022-09-28T03:21:21.509Z,8.85
2022-09-28T03:22:21.719Z,8.89
2022-09-28T03:23:25.603Z,8.87
2022-09-28T03:24:22.138Z,8.81
2022-09-28T03:25:22.346Z,8.85
2022-09-28T03:26:22.561Z,8.89
2022-09-28T03:27:22.775Z,8.84
2022-09-28T03:28:23.037Z,8.88
2022-09-28T03:29:23.194Z,8.85
2022-09-28T03:30:23.402Z,8.84
2022-09-28T03:31:23.651Z,8.81
2022-09-28T03:32:23.788Z,8.79
2022-09-28T03:33:24.050Z,8.79
2022-09-28T03:34:24.215Z,8.84
2022-09-28T03:35:24.422Z,8.76
2022-09-28T03:36:24.629Z,8.78
2022-09-28T03:37:24.837Z,8.74
2022-09-28T03:38:25.159Z,8.74
2022-09-28T03:39:25.257Z,8.74
2022-09-28T03:40:25.528Z,8.71
2022-09-28T03:41:25.686Z,8.74
2022-09-28T03:42:25.878Z,8.70
2022-09-28T03:43:26.113Z,8.70
2022-09-28T03:44:26.291Z,8.69
2022-09-28T03:45:26.594Z,8.67
2022-09-28T03:46:26.774Z,8.74
2022-09-28T03:47:26.883Z,8.73
2022-09-28T03:48:30.021Z,8.73
2022-09-28T03:49:27.247Z,8.73
2022-09-28T03:50:27.448Z,8.73
2022-09-28T03:51:27.577Z,8.73
2022-09-28T03:52:27.750Z,8.76
2022-09-28T03:53:28.072Z,8.66
2022-09-28T03:54:28.113Z,8.67
2022-09-28T03:55:28.297Z,8.71
2022-09-28T03:56:28.502Z,8.64
2022-09-28T03:57:28.723Z,8.70
2022-09-28T03:58:29.044Z,8.66
2022-09-28T03:59:29.051Z,8.67
2022-09-28T04:00:29.320Z,8.61
2022-09-28T04:01:29.537Z,8.63
2022-09-28T04:02:29.715Z,8.69
2022-09-28T04:03:29.944Z,8.60
2022-09-28T04:04:30.086Z,8.70
2022-09-28T04:05:30.308Z,8.69
2022-09-28T04:06:30.519Z,8.63
2022-09-28T04:07:31.333Z,8.55
2022-09-28T04:08:30.981Z,8.64
2022-09-28T04:09:31.206Z,8.49
2022-09-28T04:10:31.437Z,8.64
2022-09-28T04:11:47.645Z,8.61
2022-09-28T04:12:31.819Z,8.56
2022-09-28T04:13:32.073Z,8.56
2022-09-28T04:14:32.254Z,8.63
2022-09-28T04:15:32.479Z,8.61
2022-09-28T04:16:32.722Z,8.55
2022-09-28T04:17:36.458Z,8.56
2022-09-28T04:18:33.073Z,8.55
2022-09-28T04:19:33.229Z,8.52
2022-09-28T04:20:33.418Z,8.53
2022-09-28T04:21:33.591Z,8.49
2022-09-28T04:22:33.785Z,8.41
2022-09-28T04:23:34.043Z,8.28
2022-09-28T04:24:34.194Z,8.26
2022-09-28T04:25:34.396Z,8.46
2022-09-28T04:26:34.606Z,8.48
2022-09-28T04:27:34.817Z,8.48
2022-09-28T04:28:35.077Z,8.44
2022-09-28T04:29:35.238Z,8.46
2022-09-28T04:30:35.450Z,8.45
2022-09-28T04:31:35.790Z,8.38
2022-09-28T04:32:35.861Z,8.34
2022-09-28T04:33:36.290Z,8.45
2022-09-28T04:34:39.592Z,8.49
2022-09-28T04:35:36.507Z,8.38
2022-09-28T04:36:36.730Z,8.41
2022-09-28T04:37:36.937Z,8.49
2022-09-28T04:38:52.440Z,8.44
2022-09-28T04:39:37.366Z,8.42
2022-09-28T04:40:37.632Z,8.48
2022-09-28T04:41:37.885Z,8.45
2022-09-28T04:42:38.014Z,8.46
2022-09-28T04:43:38.242Z,8.48
2022-09-28T04:44:38.463Z,8.41
2022-09-28T04:45:38.715Z,8.36
2022-09-28T04:46:38.952Z,8.34
2022-09-28T04:47:39.090Z,8.42
2022-09-28T04:48:39.300Z,8.31
2022-09-28T04:49:39.531Z,8.28
2022-09-28T04:50:39.744Z,8.28
2022-09-28T04:51:40.003Z,8.28
2022-09-28T04:52:40.167Z,8.31
2022-09-28T04:53:40.384Z,8.27
2022-09-28T04:54:40.605Z,8.26
2022-09-28T04:55:40.803Z,8.27
2022-09-28T04:56:41.075Z,8.26
2022-09-28T04:57:41.218Z,8.27
2022-09-28T04:58:41.435Z,8.28
2022-09-28T04:59:41.648Z,8.24
2022-09-28T05:00:41.918Z,8.26
2022-09-28T05:01:42.167Z,8.23
2022-09-28T05:02:42.367Z,8.16
2022-09-28T05:03:42.500Z,8.18
2022-09-28T05:04:42.713Z,8.15
2022-09-28T05:05:42.927Z,8.23
2022-09-28T05:06:43.183Z,8.18
2022-09-28T05:07:43.351Z,8.12
2022-09-28T05:08:43.609Z,8.23
2022-09-28T05:09:43.776Z,8.20
2022-09-28T05:10:43.981Z,8.18
2022-09-28T05:11:44.198Z,8.16
2022-09-28T05:12:44.418Z,8.13
2022-09-28T05:13:44.765Z,8.15
2022-09-28T05:14:44.828Z,8.10
2022-09-28T05:15:45.008Z,8.10
2022-09-28T05:16:45.291Z,8.12
2022-09-28T05:17:45.373Z,8.06
2022-09-28T05:18:45.596Z,8.12
2022-09-28T05:19:45.758Z,8.05
2022-09-28T05:20:45.935Z,8.09
2022-09-28T05:21:46.118Z,8.08
2022-09-28T05:22:46.313Z,8.09
2022-09-28T05:23:46.573Z,8.09
2022-09-28T05:24:46.684Z,8.09
2022-09-28T05:25:46.878Z,8.06
2022-09-28T05:26:47.099Z,8.05
2022-09-28T05:27:47.319Z,8.08
2022-09-28T05:28:47.559Z,8.09
2022-09-28T05:29:47.741Z,8.08
2022-09-28T05:30:47.995Z,8.12
2022-09-28T05:31:48.263Z,8.08
2022-09-28T05:32:48.395Z,8.01
2022-09-28T05:33:48.617Z,8.10
2022-09-28T05:34:48.869Z,8.06
2022-09-28T05:35:53.838Z,8.09
2022-09-28T05:36:49.288Z,8.05
2022-09-28T05:37:49.548Z,8.12
2022-09-28T05:38:49.693Z,8.03
2022-09-28T05:39:49.919Z,8.03
2022-09-28T05:40:50.269Z,8.08
2022-09-28T05:41:50.424Z,8.06
2022-09-28T05:42:50.601Z,8.01
2022-09-28T05:43:50.829Z,8.05
2022-09-28T05:44:51.045Z,8.05
2022-09-28T05:45:55.277Z,7.97
2022-09-28T05:46:51.552Z,8.05
2022-09-28T05:47:51.705Z,8.00
2022-09-28T05:48:51.923Z,8.05
2022-09-28T05:49:52.158Z,8.08
2022-09-28T05:50:52.557Z,8.08
2022-09-28T05:51:52.630Z,8.09
2022-09-28T05:52:52.790Z,8.05
2022-09-28T05:53:52.981Z,8.08
2022-09-28T05:54:53.168Z,8.09
2022-09-28T05:55:53.402Z,8.06
2022-09-28T05:56:53.594Z,8.12
2022-09-28T05:57:53.809Z,8.09
2022-09-28T05:58:53.968Z,8.12
2022-09-28T05:59:54.161Z,8.06
2022-09-28T06:00:54.387Z,8.10
2022-09-28T06:01:54.591Z,8.08
2022-09-28T06:02:54.753Z,8.09
2022-09-28T06:03:54.924Z,8.03
2022-09-28T06:04:55.106Z,7.98
2022-09-28T06:05:55.293Z,7.98
2022-09-28T06:06:55.519Z,7.97
2022-09-28T06:07:55.670Z,8.05
2022-09-28T06:08:55.908Z,8.05
2022-09-28T06:09:56.092Z,8.01
2022-09-28T06:10:56.241Z,7.95
2022-09-28T06:11:56.635Z,8.03
2022-09-28T06:12:56.674Z,8.06
2022-09-28T06:13:56.876Z,7.95
2022-09-28T06:14:57.104Z,7.95
2022-09-28T06:15:57.310Z,8.00
2022-09-28T06:16:57.703Z,7.93
2022-09-28T06:17:57.739Z,7.97
2022-09-28T06:18:57.953Z,8.00
2022-09-28T06:19:58.157Z,8.03
2022-09-28T06:20:58.396Z,8.06
2022-09-28T06:21:59.434Z,8.10
2022-09-28T06:22:58.754Z,8.16
2022-09-28T06:23:58.959Z,8.12
2022-09-28T06:24:59.170Z,8.13
2022-09-28T06:25:59.373Z,8.26
2022-09-28T06:26:59.609Z,8.20
2022-09-28T06:27:59.781Z,8.15
2022-09-28T06:28:59.983Z,8.20
2022-09-28T06:30:00.229Z,8.27
2022-09-28T06:31:00.470Z,8.20
2022-09-28T06:32:00.793Z,8.23
2022-09-28T06:33:00.815Z,8.27
2022-09-28T06:34:01.029Z,8.28
2022-09-28T06:35:01.238Z,8.26
2022-09-28T06:36:01.438Z,8.24
2022-09-28T06:37:01.723Z,8.20
2022-09-28T06:38:01.851Z,8.23
2022-09-28T06:39:02.063Z,8.24
2022-09-28T06:40:02.307Z,8.20
2022-09-28T06:41:02.541Z,8.26
2022-09-28T06:42:02.714Z,8.18
2022-09-28T06:43:02.905Z,8.26
2022-09-28T06:44:03.144Z,8.24
2022-09-28T06:45:03.326Z,8.26
2022-09-28T06:46:03.608Z,8.27
2022-09-28T06:47:03.750Z,8.28
2022-09-28T06:48:03.920Z,8.45
2022-09-28T06:49:04.137Z,8.41
2022-09-28T06:50:04.304Z,8.48
2022-09-28T06:51:04.514Z,8.37
2022-09-28T06:52:04.726Z,8.34
2022-09-28T06:53:04.927Z,8.37
2022-09-28T06:54:05.190Z,8.44
2022-09-28T06:55:05.340Z,8.51
2022-09-28T06:56:05.551Z,8.49
2022-09-28T06:57:05.751Z,8.52
2022-09-28T06:58:05.939Z,8.55
2022-09-28T06:59:06.181Z,8.56
2022-09-28T07:00:06.340Z,8.51
2022-09-28T07:01:06.574Z,8.56
2022-09-28T07:02:06.838Z,8.64
2022-09-28T07:03:06.921Z,8.60
2022-09-28T07:04:07.236Z,8.63
2022-09-28T07:05:07.322Z,8.66
2022-09-28T07:06:07.520Z,8.60
2022-09-28T07:07:07.700Z,8.69
2022-09-28T07:08:07.893Z,8.67
2022-09-28T07:09:22.758Z,8.71
2022-09-28T07:10:08.344Z,8.71
2022-09-28T07:11:08.500Z,8.79
2022-09-28T07:12:08.720Z,8.85
2022-09-28T07:13:16.985Z,8.81
2022-09-28T07:14:22.829Z,8.87
2022-09-28T07:15:09.268Z,8.91
2022-09-28T07:16:09.555Z,8.85
2022-09-28T07:17:14.150Z,8.89
2022-09-28T07:18:09.965Z,8.91
2022-09-28T07:19:10.097Z,8.95
2022-09-28T07:20:18.170Z,8.99
2022-09-28T07:21:19.853Z,9.06
2022-09-28T07:22:13.038Z,9.13
2022-09-28T07:23:19.098Z,9.06
2022-09-28T07:24:11.106Z,9.16
2022-09-28T07:25:11.310Z,9.13
2022-09-28T07:26:11.504Z,9.23
2022-09-28T07:27:11.698Z,9.16
2022-09-28T07:28:11.922Z,9.19
2022-09-28T07:29:12.125Z,9.14
2022-09-28T07:30:12.262Z,9.21
2022-09-28T07:31:12.527Z,9.26
2022-09-28T07:32:12.665Z,9.31
2022-09-28T07:33:12.850Z,9.25
2022-09-28T07:34:13.098Z,9.31
2022-09-28T07:35:13.234Z,9.28
2022-09-28T07:36:13.429Z,9.32
2022-09-28T07:37:13.638Z,9.32
2022-09-28T07:38:13.822Z,9.40
2022-09-28T07:39:14.082Z,9.36
2022-09-28T07:40:14.230Z,9.39
2022-09-28T07:41:14.435Z,9.39
2022-09-28T07:42:14.619Z,9.43
2022-09-28T07:43:14.819Z,9.39
2022-09-28T07:44:15.125Z,9.48
2022-09-28T07:45:15.219Z,9.48
2022-09-28T07:46:15.489Z,9.51
2022-09-28T07:47:15.649Z,9.48
2022-09-28T07:48:15.821Z,9.56
2022-09-28T07:49:15.974Z,9.62
2022-09-28T07:50:16.177Z,9.68
2022-09-28T07:51:16.357Z,9.64
2022-09-28T07:52:16.781Z,9.65
2022-09-28T07:53:16.725Z,9.65
2022-09-28T07:54:16.918Z,9.62
2022-09-28T07:55:17.105Z,9.72
2022-09-28T07:56:17.305Z,9.61
2022-09-28T07:57:17.513Z,9.74
2022-09-28T07:58:17.665Z,9.66
2022-09-28T07:59:17.986Z,9.76
2022-09-28T08:00:18.037Z,9.74
2022-09-28T08:01:18.287Z,9.76
2022-09-28T08:02:18.558Z,9.80
2022-09-28T08:03:18.611Z,9.80
2022-09-28T08:04:18.758Z,9.82
2022-09-28T08:05:18.917Z,9.89
2022-09-28T08:06:19.110Z,9.92
2022-09-28T08:07:23.689Z,9.92
2022-09-28T08:08:19.490Z,9.92
2022-09-28T08:09:19.678Z,9.84
2022-09-28T08:10:19.867Z,9.86
2022-09-28T08:11:20.052Z,9.87
2022-09-28T08:12:20.259Z,9.89
2022-09-28T08:13:23.392Z,9.87
2022-09-28T08:14:20.601Z,9.99
2022-09-28T08:15:20.789Z,9.99
2022-09-28T08:16:21.194Z,9.97
2022-09-28T08:17:21.203Z,9.89
2022-09-28T08:18:21.399Z,9.98
2022-09-28T08:19:21.563Z,9.98
2022-09-28T08:20:21.759Z,9.95
2022-09-28T08:21:22.105Z,10.04
2022-09-28T08:22:22.142Z,10.07
2022-09-28T08:23:22.325Z,10.07
2022-09-28T08:24:22.518Z,10.13
2022-09-28T08:25:22.717Z,10.07
2022-09-28T08:26:22.977Z,10.19
2022-09-28T08:27:23.104Z,10.28
2022-09-28T08:28:23.288Z,10.26
2022-09-28T08:29:23.472Z,10.17
2022-09-28T08:30:23.823Z,10.25
2022-09-28T08:31:23.909Z,10.30
2022-09-28T08:32:24.016Z,10.25
2022-09-28T08:33:24.208Z,10.23
2022-09-28T08:34:24.367Z,10.26
2022-09-28T08:35:24.549Z,10.34
2022-09-28T08:36:24.872Z,10.22
2022-09-28T08:37:24.930Z,10.23
2022-09-28T08:38:25.082Z,10.25
2022-09-28T08:39:25.230Z,10.34
2022-09-28T08:40:25.487Z,10.37
2022-09-28T08:41:25.568Z,10.33
2022-09-28T08:42:25.686Z,10.41
2022-09-28T08:43:25.843Z,10.48
2022-09-28T08:44:25.991Z,10.40
2022-09-28T08:45:26.156Z,10.48
2022-09-28T08:46:27.226Z,10.48
2022-09-28T08:47:26.411Z,10.42
2022-09-28T08:48:26.550Z,10.51
2022-09-28T08:49:26.828Z,10.60
2022-09-28T08:50:26.888Z,10.57
2022-09-28T08:51:27.009Z,10.57
2022-09-28T08:52:27.146Z,10.60
2022-09-28T08:53:27.345Z,10.63
2022-09-28T08:54:27.671Z,10.72
2022-09-28T08:55:27.620Z,10.74
2022-09-28T08:56:27.776Z,10.74
2022-09-28T08:57:27.914Z,10.79
2022-09-28T08:58:28.143Z,10.76
2022-09-28T08:59:28.214Z,10.84
2022-09-28T09:00:28.363Z,10.84
2022-09-28T09:01:28.633Z,10.82
2022-09-28T09:02:28.789Z,10.81
2022-09-28T09:03:28.953Z,10.78
2022-09-28T09:04:28.949Z,10.81
2022-09-28T09:05:29.125Z,10.82
2022-09-28T09:06:29.243Z,10.86
2022-09-28T09:07:29.383Z,10.93
2022-09-28T09:08:29.599Z,10.87
2022-09-28T09:09:29.663Z,10.86
2022-09-28T09:10:29.786Z,10.87
2022-09-28T09:11:29.907Z,10.92
2022-09-28T09:12:30.050Z,10.94
2022-09-28T09:13:30.377Z,10.89
2022-09-28T09:14:30.358Z,10.92
2022-09-28T09:15:30.496Z,10.92
2022-09-28T09:16:30.681Z,10.92
2022-09-28T09:17:30.763Z,10.94
2022-09-28T09:18:31.101Z,10.94
2022-09-28T09:19:31.031Z,10.96
2022-09-28T09:20:31.162Z,11.00
2022-09-28T09:21:31.348Z,11.11
2022-09-28T09:22:31.481Z,11.15
2022-09-28T09:23:31.753Z,11.22
2022-09-28T09:24:31.796Z,11.26
2022-09-28T09:25:35.433Z,11.26
2022-09-28T09:26:32.217Z,11.26
2022-09-28T09:27:32.298Z,11.26
2022-09-28T09:28:32.488Z,11.35
2022-09-28T09:29:32.820Z,11.18
2022-09-28T09:30:32.925Z,11.22
2022-09-28T09:31:32.974Z,11.25
2022-09-28T09:32:33.142Z,11.18
2022-09-28T09:33:33.321Z,11.22
2022-09-28T09:34:33.526Z,11.18
2022-09-28T09:35:33.651Z,11.26
2022-09-28T09:36:33.818Z,11.30
2022-09-28T09:37:34.018Z,11.30
2022-09-28T09:38:34.149Z,11.29
2022-09-28T09:39:34.346Z,11.27
2022-09-28T09:40:34.559Z,11.32
2022-09-28T09:41:34.624Z,11.41
2022-09-28T09:42:34.786Z,11.41
2022-09-28T09:43:34.955Z,11.35
2022-09-28T09:44:35.125Z,11.43
2022-09-28T09:45:35.461Z,11.40
2022-09-28T09:46:35.456Z,11.40
2022-09-28T09:47:35.619Z,11.51
2022-09-28T09:48:35.781Z,11.45
2022-09-28T09:49:35.986Z,11.50
2022-09-28T09:50:36.102Z,11.50
2022-09-28T09:51:36.248Z,11.60
2022-09-28T09:52:38.735Z,11.60
2022-09-28T09:53:38.484Z,11.59
2022-09-28T09:54:36.685Z,11.63
2022-09-28T09:55:36.787Z,11.63
2022-09-28T09:56:36.926Z,11.63
2022-09-28T09:57:37.085Z,11.69
2022-09-28T09:58:37.182Z,11.77
2022-09-28T09:59:37.305Z,11.88
2022-09-28T10:00:37.427Z,11.87
2022-09-28T10:01:37.656Z,12.00
2022-09-28T10:02:37.789Z,12.03
2022-09-28T10:03:37.862Z,12.06
2022-09-28T10:04:37.955Z,12.06
2022-09-28T10:05:38.085Z,11.97
2022-09-28T10:06:38.211Z,11.90
2022-09-28T10:07:42.547Z,12.04
2022-09-28T10:08:38.523Z,11.88
2022-09-28T10:09:38.629Z,11.95
2022-09-28T10:10:38.847Z,11.91
2022-09-28T10:11:38.898Z,11.97
2022-09-28T10:12:39.112Z,11.86
2022-09-28T10:13:39.183Z,11.86
2022-09-28T10:14:39.372Z,11.95
2022-09-28T10:15:39.554Z,11.91
2022-09-28T10:16:39.737Z,11.84
2022-09-28T10:17:39.853Z,11.83
2022-09-28T10:18:40.004Z,11.81
2022-09-28T10:19:40.335Z,11.77
2022-09-28T10:20:40.332Z,11.70
2022-09-28T10:21:40.498Z,11.72
2022-09-28T10:22:40.657Z,11.80
2022-09-28T10:23:40.842Z,11.70
2022-09-28T10:24:41.000Z,11.69
2022-09-28T10:25:41.152Z,11.69
2022-09-28T10:26:41.275Z,11.73
2022-09-28T10:27:41.435Z,11.68
2022-09-28T10:28:41.601Z,11.69
2022-09-28T10:29:41.796Z,11.91
2022-09-28T10:30:42.121Z,11.83
2022-09-28T10:31:42.194Z,11.84
2022-09-28T10:32:42.252Z,11.83
2022-09-28T10:33:42.404Z,11.83
2022-09-28T10:34:42.572Z,11.80
2022-09-28T10:35:42.766Z,11.77
2022-09-28T10:36:43.013Z,11.86
2022-09-28T10:37:43.068Z,11.69
2022-09-28T10:38:43.254Z,11.80
2022-09-28T10:39:43.373Z,11.66
2022-09-28T10:40:43.693Z,11.70
2022-09-28T10:41:43.869Z,11.73
2022-09-28T10:42:43.881Z,11.69
2022-09-28T10:43:47.762Z,11.69
2022-09-28T10:44:44.209Z,11.75
2022-09-28T10:45:44.440Z,11.75
2022-09-28T10:46:44.611Z,11.83
2022-09-28T10:47:44.725Z,11.86
2022-09-28T10:48:44.899Z,11.94
2022-09-28T10:49:47.286Z,11.91
2022-09-28T10:50:45.263Z,11.87
2022-09-28T10:51:45.477Z,11.86
2022-09-28T10:52:45.786Z,11.86
2022-09-28T10:53:45.821Z,11.94
2022-09-28T10:54:45.967Z,11.94
2022-09-28T10:55:46.140Z,11.88
2022-09-28T10:56:46.319Z,11.90
2022-09-28T10:57:46.532Z,11.99
2022-09-28T10:58:46.708Z,11.91
2022-09-28T10:59:46.849Z,11.97
2022-09-28T11:00:47.066Z,12.00
2022-09-28T11:01:47.333Z,11.90
2022-09-28T11:02:47.394Z,12.02
2022-09-28T11:03:47.499Z,11.97
2022-09-28T11:04:47.664Z,12.02
2022-09-28T11:05:47.926Z,12.04
2022-09-28T11:06:48.069Z,12.09
2022-09-28T11:07:48.174Z,12.07
2022-09-28T11:08:48.366Z,12.10
2022-09-28T11:09:48.833Z,12.06
2022-09-28T11:10:48.722Z,12.00
2022-09-28T11:11:48.872Z,12.10
2022-09-28T11:12:49.042Z,12.06
2022-09-28T11:13:49.253Z,12.04
2022-09-28T11:14:49.365Z,12.07
2022-09-28T11:15:49.533Z,12.13
2022-09-28T11:16:49.695Z,12.20
2022-09-28T11:17:49.816Z,12.22
2022-09-28T11:18:50.062Z,12.18
2022-09-28T11:19:50.083Z,12.27
2022-09-28T11:20:50.224Z,12.18
2022-09-28T11:21:50.358Z,12.21
2022-09-28T11:22:53.361Z,12.18
2022-09-28T11:23:50.689Z,12.22
2022-09-28T11:24:50.820Z,12.25
2022-09-28T11:25:50.937Z,12.20
2022-09-28T11:26:51.082Z,12.29
2022-09-28T11:27:51.252Z,12.35
2022-09-28T11:28:51.434Z,12.32
2022-09-28T11:29:51.569Z,12.39
2022-09-28T11:30:51.771Z,12.42
2022-09-28T11:31:51.859Z,12.37
2022-09-28T11:32:52.016Z,12.36
2022-09-28T11:33:53.177Z,12.40
2022-09-28T11:34:59.641Z,12.36
2022-09-28T11:35:52.545Z,12.42
2022-09-28T11:36:52.660Z,12.45
2022-09-28T11:37:52.742Z,12.47
2022-09-28T11:38:52.873Z,12.54
2022-09-28T11:39:53.074Z,12.53
2022-09-28T11:40:53.232Z,12.57
2022-09-28T11:41:53.293Z,12.60
2022-09-28T11:42:53.466Z,12.70
2022-09-28T11:43:53.577Z,12.72
2022-09-28T11:44:53.747Z,12.72
2022-09-28T11:45:53.949Z,12.72
2022-09-28T11:46:54.019Z,12.75
2022-09-28T11:47:54.188Z,12.85
2022-09-28T11:48:54.345Z,12.82
2022-09-28T11:49:54.678Z,12.83
2022-09-28T11:50:54.673Z,12.79
2022-09-28T11:51:54.839Z,12.82
2022-09-28T11:52:55.008Z,12.83
2022-09-28T11:53:55.181Z,12.86
2022-09-28T11:54:55.359Z,12.80
2022-09-28T11:55:55.542Z,12.79
2022-09-28T11:56:55.637Z,12.82
2022-09-28T11:57:55.795Z,12.86
2022-09-28T11:58:55.958Z,12.82
2022-09-28T11:59:56.198Z,12.82
2022-09-28T12:00:56.262Z,12.82
2022-09-28T12:01:56.434Z,12.82
2022-09-28T12:02:56.717Z,12.87
2022-09-28T12:03:56.663Z,12.85
2022-09-28T12:04:56.818Z,12.93
2022-09-28T12:05:56.958Z,12.93
2022-09-28T12:06:57.060Z,12.97
2022-09-28T12:07:57.255Z,13.00
2022-09-28T12:08:57.346Z,13.00
2022-09-28T12:09:57.528Z,13.00
2022-09-28T12:10:57.627Z,13.09
2022-09-28T12:11:57.756Z,13.09
2022-09-28T12:12:57.884Z,13.11
2022-09-28T12:13:58.018Z,13.18
2022-09-28T12:14:58.192Z,13.27
2022-09-28T12:16:37.535Z,13.28
2022-09-28T12:17:06.691Z,13.38
2022-09-28T12:17:58.611Z,13.39
2022-09-28T12:19:58.839Z,13.46
2022-09-28T12:21:04.347Z,13.41
2022-09-28T12:21:59.063Z,13.54
2022-09-28T12:22:59.248Z,13.54
2022-09-28T12:23:59.286Z,13.53
2022-09-28T12:24:59.403Z,13.53
2022-09-28T12:25:59.526Z,13.56
2022-09-28T12:26:59.686Z,13.50
2022-09-28T12:27:59.817Z,13.52
2022-09-28T12:28:59.913Z,13.54
2022-09-28T12:30:00.037Z,13.52
2022-09-28T12:31:00.245Z,13.56
2022-09-28T12:32:00.304Z,13.60
2022-09-28T12:33:00.444Z,13.62
2022-09-28T12:34:00.716Z,13.59
2022-09-28T12:35:00.698Z,13.62
2022-09-28T12:36:00.834Z,13.59
2022-09-28T12:37:00.977Z,13.59
2022-09-28T12:38:01.104Z,13.57
2022-09-28T12:39:18.889Z,13.63
2022-09-28T12:40:01.857Z,13.62
2022-09-28T12:41:01.601Z,13.54
2022-09-28T12:42:01.625Z,13.67
2022-09-28T12:43:01.767Z,13.57
2022-09-28T12:44:01.886Z,13.67
2022-09-28T12:45:01.972Z,13.59
2022-09-28T12:46:13.958Z,13.67
2022-09-28T12:47:02.266Z,13.60
2022-09-28T12:48:02.382Z,13.59
2022-09-28T12:49:51.570Z,13.59
2022-09-28T12:51:03.072Z,13.50
2022-09-28T12:52:02.940Z,13.52
2022-09-28T12:53:03.392Z,13.47
2022-09-28T12:54:03.285Z,13.47
2022-09-28T12:55:03.523Z,13.42
2022-09-28T12:56:03.564Z,13.44
2022-09-28T12:57:03.735Z,13.39
2022-09-28T12:58:03.911Z,13.41
2022-09-28T12:59:04.092Z,13.47
2022-09-28T13:00:04.233Z,13.53
2022-09-28T13:01:04.400Z,13.49
2022-09-28T13:02:04.534Z,13.42
2022-09-28T13:03:04.657Z,13.49
2022-09-28T13:04:04.809Z,13.44
2022-09-28T13:05:05.137Z,13.49
2022-09-28T13:06:05.109Z,13.57
2022-09-28T13:07:05.266Z,13.57
2022-09-28T13:08:05.407Z,13.52
2022-09-28T13:09:05.541Z,13.57
2022-09-28T13:10:05.733Z,13.56
2022-09-28T13:11:08.049Z,13.53
2022-09-28T13:12:06.103Z,13.59
2022-09-28T13:13:06.135Z,13.62